Sektagli, Russia
Current Conditions -  °F | °C
As of 7:30 AM on Thursday 23 Oct 2014 (Local Time) from UHBB Reporting Station
Clear Clear  
Wind Chill:   Ceiling: Unl
Heat Index:   Visibility: 4mi
Dew Point: -7°   Wind: 2mph
Humidity: 52%   Direction: NA
Pressure: 29.65"   Gusts: NA
Location:  50.42°N, 131°E
Report Text: UHBB 222130Z VRB01MPS 7000 NSC 02/M07 Q1004 NOSIG RMKQFE736/0981 36090060
Loading
Personal Weather Stations






























Interactive Weather Map
Tropical Storm Tracking
New forecast layout! Learn more

10-Day Weather Forecast

Advertisements
Track Severe Weather on mobile